sensor_id;sensor_type;location;lat;lon;timestamp;temperature;humidity
41447;DHT22;27185;52.040;4.490;2023-04-03T00:00:18;6.80;99.90
41447;DHT22;27185;52.040;4.490;2023-04-03T00:03:04;6.80;99.90
41447;DHT22;27185;52.040;4.490;2023-04-03T00:05:50;6.80;99.90
41447;DHT22;27185;52.040;4.490;2023-04-03T00:08:35;6.70;99.90
41447;DHT22;27185;52.040;4.490;2023-04-03T00:11:21;6.70;99.90
41447;DHT22;27185;52.040;4.490;2023-04-03T00:14:07;6.70;99.90
41447;DHT22;27185;52.040;4.490;2023-04-03T00:16:52;6.70;99.90
41447;DHT22;27185;52.040;4.490;2023-04-03T00:19:38;6.60;99.90
41447;DHT22;27185;52.040;4.490;2023-04-03T00:22:24;6.60;99.90
41447;DHT22;27185;52.040;4.490;2023-04-03T00:25:11;6.50;99.90
41447;DHT22;27185;52.040;4.490;2023-04-03T00:27:57;6.50;99.90
41447;DHT22;27185;52.040;4.490;2023-04-03T00:30:43;6.50;99.90
41447;DHT22;27185;52.040;4.490;2023-04-03T00:33:28;6.50;99.90
41447;DHT22;27185;52.040;4.490;2023-04-03T00:36:15;6.40;99.90
41447;DHT22;27185;52.040;4.490;2023-04-03T00:39:01;6.40;99.90
41447;DHT22;27185;52.040;4.490;2023-04-03T00:41:47;6.30;99.90
41447;DHT22;27185;52.040;4.490;2023-04-03T00:47:21;6.30;99.90
41447;DHT22;27185;52.040;4.490;2023-04-03T00:50:07;6.30;99.90
41447;DHT22;27185;52.040;4.490;2023-04-03T00:52:54;6.20;99.90
41447;DHT22;27185;52.040;4.490;2023-04-03T00:55:41;6.20;99.90
41447;DHT22;27185;52.040;4.490;2023-04-03T00:58:33;6.10;99.90
41447;DHT22;27185;52.040;4.490;2023-04-03T01:01:22;6.10;99.90
41447;DHT22;27185;52.040;4.490;2023-04-03T01:07:16;6.10;99.90
41447;DHT22;27185;52.040;4.490;2023-04-03T01:10:07;6.00;99.90
41447;DHT22;27185;52.040;4.490;2023-04-03T01:12:53;5.90;99.90
41447;DHT22;27185;52.040;4.490;2023-04-03T01:15:39;5.90;99.90
41447;DHT22;27185;52.040;4.490;2023-04-03T01:18:25;5.80;99.90
41447;DHT22;27185;52.040;4.490;2023-04-03T01:21:41;5.80;99.90
41447;DHT22;27185;52.040;4.490;2023-04-03T01:24:36;5.80;99.90
41447;DHT22;27185;52.040;4.490;2023-04-03T01:27:24;5.80;99.90
41447;DHT22;27185;52.040;4.490;2023-04-03T01:30:10;5.80;99.90
41447;DHT22;27185;52.040;4.490;2023-04-03T01:32:56;5.80;99.90
41447;DHT22;27185;52.040;4.490;2023-04-03T01:35:42;5.70;99.90
41447;DHT22;27185;52.040;4.490;2023-04-03T01:38:28;5.70;99.90
41447;DHT22;27185;52.040;4.490;2023-04-03T01:41:14;5.70;99.90
41447;DHT22;27185;52.040;4.490;2023-04-03T01:44:00;5.70;99.90
41447;DHT22;27185;52.040;4.490;2023-04-03T01:46:46;5.60;99.90
41447;DHT22;27185;52.040;4.490;2023-04-03T01:49:32;5.60;99.90
41447;DHT22;27185;52.040;4.490;2023-04-03T01:52:17;5.60;99.90
41447;DHT22;27185;52.040;4.490;2023-04-03T01:55:03;5.60;99.90
41447;DHT22;27185;52.040;4.490;2023-04-03T01:57:49;5.50;99.90
41447;DHT22;27185;52.040;4.490;2023-04-03T02:00:34;5.50;99.90
41447;DHT22;27185;52.040;4.490;2023-04-03T02:03:21;5.50;99.90
41447;DHT22;27185;52.040;4.490;2023-04-03T02:06:07;5.50;99.90
41447;DHT22;27185;52.040;4.490;2023-04-03T02:08:53;5.50;99.90
41447;DHT22;27185;52.040;4.490;2023-04-03T02:11:38;5.50;99.90
41447;DHT22;27185;52.040;4.490;2023-04-03T02:14:24;5.40;99.90
41447;DHT22;27185;52.040;4.490;2023-04-03T02:17:09;5.40;99.90
41447;DHT22;27185;52.040;4.490;2023-04-03T02:19:55;5.40;99.90
41447;DHT22;27185;52.040;4.490;2023-04-03T02:22:41;5.30;99.90
41447;DHT22;27185;52.040;4.490;2023-04-03T02:25:26;5.30;99.90
41447;DHT22;27185;52.040;4.490;2023-04-03T02:28:12;5.30;99.90
41447;DHT22;27185;52.040;4.490;2023-04-03T02:30:57;5.30;99.90
41447;DHT22;27185;52.040;4.490;2023-04-03T02:33:43;5.20;99.90
41447;DHT22;27185;52.040;4.490;2023-04-03T02:36:28;5.20;99.90
41447;DHT22;27185;52.040;4.490;2023-04-03T02:39:14;5.10;99.90
41447;DHT22;27185;52.040;4.490;2023-04-03T02:42:00;5.10;99.90
41447;DHT22;27185;52.040;4.490;2023-04-03T02:44:45;5.00;99.90
41447;DHT22;27185;52.040;4.490;2023-04-03T02:47:31;5.00;99.90
41447;DHT22;27185;52.040;4.490;2023-04-03T02:50:17;5.00;99.90
41447;DHT22;27185;52.040;4.490;2023-04-03T02:53:03;4.90;99.90
41447;DHT22;27185;52.040;4.490;2023-04-03T02:55:48;4.90;99.90
41447;DHT22;27185;52.040;4.490;2023-04-03T02:58:34;4.80;99.90
41447;DHT22;27185;52.040;4.490;2023-04-03T03:01:20;4.80;99.90
41447;DHT22;27185;52.040;4.490;2023-04-03T03:04:06;4.80;99.90
41447;DHT22;27185;52.040;4.490;2023-04-03T03:06:52;4.70;99.90
41447;DHT22;27185;52.040;4.490;2023-04-03T03:09:37;4.70;99.90
41447;DHT22;27185;52.040;4.490;2023-04-03T03:12:23;4.70;99.90
41447;DHT22;27185;52.040;4.490;2023-04-03T03:15:10;4.60;99.90
41447;DHT22;27185;52.040;4.490;2023-04-03T03:17:55;4.60;99.90
41447;DHT22;27185;52.040;4.490;2023-04-03T03:20:41;4.60;99.90
41447;DHT22;27185;52.040;4.490;2023-04-03T03:23:29;4.60;99.90
41447;DHT22;27185;52.040;4.490;2023-04-03T03:26:14;4.60;99.90
41447;DHT22;27185;52.040;4.490;2023-04-03T03:29:00;4.60;99.90
41447;DHT22;27185;52.040;4.490;2023-04-03T03:31:46;4.50;99.90
41447;DHT22;27185;52.040;4.490;2023-04-03T03:34:31;4.50;99.90
41447;DHT22;27185;52.040;4.490;2023-04-03T03:37:17;4.50;99.90
41447;DHT22;27185;52.040;4.490;2023-04-03T03:40:03;4.50;99.90
41447;DHT22;27185;52.040;4.490;2023-04-03T03:42:49;4.50;99.90
41447;DHT22;27185;52.040;4.490;2023-04-03T03:45:34;4.50;99.90
41447;DHT22;27185;52.040;4.490;2023-04-03T03:48:21;4.40;99.90
41447;DHT22;27185;52.040;4.490;2023-04-03T03:51:06;4.40;99.90
41447;DHT22;27185;52.040;4.490;2023-04-03T03:53:52;4.40;99.90
41447;DHT22;27185;52.040;4.490;2023-04-03T03:56:38;4.40;99.90
41447;DHT22;27185;52.040;4.490;2023-04-03T03:59:23;4.40;99.90
41447;DHT22;27185;52.040;4.490;2023-04-03T04:02:10;4.30;99.90
41447;DHT22;27185;52.040;4.490;2023-04-03T04:04:56;4.30;99.90
41447;DHT22;27185;52.040;4.490;2023-04-03T04:07:41;4.30;99.90
41447;DHT22;27185;52.040;4.490;2023-04-03T04:10:27;4.30;99.90
41447;DHT22;27185;52.040;4.490;2023-04-03T04:13:12;4.30;99.90
41447;DHT22;27185;52.040;4.490;2023-04-03T04:15:58;4.30;99.90
41447;DHT22;27185;52.040;4.490;2023-04-03T04:18:43;4.20;99.90
41447;DHT22;27185;52.040;4.490;2023-04-03T04:21:29;4.20;99.90
41447;DHT22;27185;52.040;4.490;2023-04-03T04:24:15;4.20;99.90
41447;DHT22;27185;52.040;4.490;2023-04-03T04:27:00;4.10;99.90
41447;DHT22;27185;52.040;4.490;2023-04-03T04:29:46;4.10;99.90
41447;DHT22;27185;52.040;4.490;2023-04-03T04:32:31;4.10;99.90
41447;DHT22;27185;52.040;4.490;2023-04-03T04:35:17;4.00;99.90
41447;DHT22;27185;52.040;4.490;2023-04-03T04:38:03;4.00;99.90
41447;DHT22;27185;52.040;4.490;2023-04-03T04:40:49;4.00;99.90
41447;DHT22;27185;52.040;4.490;2023-04-03T04:43:34;4.00;99.90
41447;DHT22;27185;52.040;4.490;2023-04-03T04:46:20;4.00;99.90
41447;DHT22;27185;52.040;4.490;2023-04-03T04:49:05;4.00;99.90
41447;DHT22;27185;52.040;4.490;2023-04-03T04:51:51;4.00;99.90
41447;DHT22;27185;52.040;4.490;2023-04-03T04:54:37;3.90;99.90
41447;DHT22;27185;52.040;4.490;2023-04-03T04:57:22;3.90;99.90
41447;DHT22;27185;52.040;4.490;2023-04-03T05:00:08;3.90;99.90
41447;DHT22;27185;52.040;4.490;2023-04-03T05:02:54;3.90;99.90
41447;DHT22;27185;52.040;4.490;2023-04-03T05:05:40;3.90;99.90
41447;DHT22;27185;52.040;4.490;2023-04-03T05:08:26;3.90;99.90
41447;DHT22;27185;52.040;4.490;2023-04-03T05:11:11;3.90;99.90
41447;DHT22;27185;52.040;4.490;2023-04-03T05:13:57;3.90;99.90
41447;DHT22;27185;52.040;4.490;2023-04-03T05:16:43;3.90;99.90
41447;DHT22;27185;52.040;4.490;2023-04-03T05:19:28;3.90;99.90
41447;DHT22;27185;52.040;4.490;2023-04-03T05:22:14;3.80;99.90
41447;DHT22;27185;52.040;4.490;2023-04-03T05:25:00;3.80;99.90
41447;DHT22;27185;52.040;4.490;2023-04-03T05:27:46;3.80;99.90
41447;DHT22;27185;52.040;4.490;2023-04-03T05:30:31;3.80;99.90
41447;DHT22;27185;52.040;4.490;2023-04-03T05:33:17;3.80;99.90
41447;DHT22;27185;52.040;4.490;2023-04-03T05:36:04;3.80;99.90
41447;DHT22;27185;52.040;4.490;2023-04-03T05:38:50;3.80;99.90
41447;DHT22;27185;52.040;4.490;2023-04-03T05:41:36;3.80;99.90
41447;DHT22;27185;52.040;4.490;2023-04-03T05:44:21;3.80;99.90
41447;DHT22;27185;52.040;4.490;2023-04-03T05:47:07;3.80;99.90
41447;DHT22;27185;52.040;4.490;2023-04-03T05:49:52;3.80;99.90
41447;DHT22;27185;52.040;4.490;2023-04-03T05:52:40;3.80;99.90
41447;DHT22;27185;52.040;4.490;2023-04-03T05:55:27;3.80;99.90
41447;DHT22;27185;52.040;4.490;2023-04-03T05:58:13;3.80;99.90
41447;DHT22;27185;52.040;4.490;2023-04-03T06:00:58;3.80;99.90
41447;DHT22;27185;52.040;4.490;2023-04-03T06:03:44;3.80;99.90
41447;DHT22;27185;52.040;4.490;2023-04-03T06:09:33;3.90;99.90
41447;DHT22;27185;52.040;4.490;2023-04-03T06:12:19;3.90;99.90
41447;DHT22;27185;52.040;4.490;2023-04-03T06:15:06;3.90;99.90
41447;DHT22;27185;52.040;4.490;2023-04-03T06:17:53;4.00;99.90
41447;DHT22;27185;52.040;4.490;2023-04-03T06:20:39;4.00;99.90
41447;DHT22;27185;52.040;4.490;2023-04-03T06:23:25;4.10;99.90
41447;DHT22;27185;52.040;4.490;2023-04-03T06:26:10;4.10;99.90
41447;DHT22;27185;52.040;4.490;2023-04-03T06:28:56;4.10;99.90
41447;DHT22;27185;52.040;4.490;2023-04-03T06:31:42;4.20;99.90
41447;DHT22;27185;52.040;4.490;2023-04-03T06:34:27;4.20;99.90
41447;DHT22;27185;52.040;4.490;2023-04-03T06:37:21;4.30;99.90
41447;DHT22;27185;52.040;4.490;2023-04-03T06:40:15;4.30;99.90
41447;DHT22;27185;52.040;4.490;2023-04-03T06:43:03;4.40;99.90
41447;DHT22;27185;52.040;4.490;2023-04-03T06:45:48;4.40;99.90
41447;DHT22;27185;52.040;4.490;2023-04-03T06:48:34;4.50;99.90
41447;DHT22;27185;52.040;4.490;2023-04-03T06:51:27;4.50;99.90
41447;DHT22;27185;52.040;4.490;2023-04-03T06:54:13;4.60;99.90
41447;DHT22;27185;52.040;4.490;2023-04-03T06:57:00;4.60;99.90
41447;DHT22;27185;52.040;4.490;2023-04-03T06:59:46;4.70;99.90
41447;DHT22;27185;52.040;4.490;2023-04-03T07:02:31;4.70;99.90
41447;DHT22;27185;52.040;4.490;2023-04-03T07:05:17;4.80;99.90
41447;DHT22;27185;52.040;4.490;2023-04-03T07:08:03;4.90;99.90
41447;DHT22;27185;52.040;4.490;2023-04-03T07:10:49;4.90;99.90
41447;DHT22;27185;52.040;4.490;2023-04-03T07:13:35;5.00;99.90
41447;DHT22;27185;52.040;4.490;2023-04-03T07:16:21;5.10;99.90
41447;DHT22;27185;52.040;4.490;2023-04-03T07:19:07;5.10;99.90
41447;DHT22;27185;52.040;4.490;2023-04-03T07:21:54;5.20;99.90
41447;DHT22;27185;52.040;4.490;2023-04-03T07:24:40;5.30;99.90
41447;DHT22;27185;52.040;4.490;2023-04-03T07:27:26;5.30;99.90
41447;DHT22;27185;52.040;4.490;2023-04-03T07:30:12;5.40;99.90
41447;DHT22;27185;52.040;4.490;2023-04-03T07:32:59;5.50;99.90
41447;DHT22;27185;52.040;4.490;2023-04-03T07:35:45;5.60;99.90
41447;DHT22;27185;52.040;4.490;2023-04-03T07:38:30;5.70;99.90
41447;DHT22;27185;52.040;4.490;2023-04-03T07:41:19;5.80;99.90
41447;DHT22;27185;52.040;4.490;2023-04-03T07:44:06;5.90;99.90
41447;DHT22;27185;52.040;4.490;2023-04-03T07:46:54;6.00;99.90
41447;DHT22;27185;52.040;4.490;2023-04-03T07:49:41;6.10;99.90
41447;DHT22;27185;52.040;4.490;2023-04-03T07:52:26;6.20;99.90
41447;DHT22;27185;52.040;4.490;2023-04-03T07:55:12;6.30;99.90
41447;DHT22;27185;52.040;4.490;2023-04-03T07:57:58;6.40;99.90
41447;DHT22;27185;52.040;4.490;2023-04-03T08:00:44;6.40;99.90
41447;DHT22;27185;52.040;4.490;2023-04-03T08:03:30;6.50;99.90
41447;DHT22;27185;52.040;4.490;2023-04-03T08:06:15;6.60;99.90
41447;DHT22;27185;52.040;4.490;2023-04-03T08:09:03;6.70;99.90
41447;DHT22;27185;52.040;4.490;2023-04-03T08:11:49;6.80;99.90
41447;DHT22;27185;52.040;4.490;2023-04-03T08:14:38;6.90;99.90
41447;DHT22;27185;52.040;4.490;2023-04-03T08:17:24;6.90;99.90
41447;DHT22;27185;52.040;4.490;2023-04-03T08:20:10;7.00;99.90
41447;DHT22;27185;52.040;4.490;2023-04-03T08:22:55;7.00;99.90
41447;DHT22;27185;52.040;4.490;2023-04-03T08:25:41;7.10;99.90
41447;DHT22;27185;52.040;4.490;2023-04-03T08:28:27;7.20;99.90
41447;DHT22;27185;52.040;4.490;2023-04-03T08:31:15;7.20;99.90
41447;DHT22;27185;52.040;4.490;2023-04-03T08:34:02;7.30;99.90
41447;DHT22;27185;52.040;4.490;2023-04-03T08:36:48;7.40;99.90
41447;DHT22;27185;52.040;4.490;2023-04-03T08:39:33;7.50;99.90
41447;DHT22;27185;52.040;4.490;2023-04-03T08:48:31;7.70;99.90
41447;DHT22;27185;52.040;4.490;2023-04-03T08:51:20;7.70;99.90
41447;DHT22;27185;52.040;4.490;2023-04-03T08:54:30;7.80;99.90
41447;DHT22;27185;52.040;4.490;2023-04-03T08:57:28;7.90;99.90
41447;DHT22;27185;52.040;4.490;2023-04-03T09:00:21;8.00;99.90
41447;DHT22;27185;52.040;4.490;2023-04-03T09:03:12;8.10;99.90
41447;DHT22;27185;52.040;4.490;2023-04-03T09:06:21;8.20;99.90
41447;DHT22;27185;52.040;4.490;2023-04-03T09:09:14;8.30;99.90
41447;DHT22;27185;52.040;4.490;2023-04-03T09:18:00;8.60;99.90
41447;DHT22;27185;52.040;4.490;2023-04-03T09:21:20;8.60;99.90
41447;DHT22;27185;52.040;4.490;2023-04-03T09:24:10;8.70;99.90
41447;DHT22;27185;52.040;4.490;2023-04-03T09:27:04;8.80;99.90
41447;DHT22;27185;52.040;4.490;2023-04-03T09:29:54;8.90;99.90
41447;DHT22;27185;52.040;4.490;2023-04-03T09:32:40;9.00;99.90
41447;DHT22;27185;52.040;4.490;2023-04-03T09:35:29;9.10;99.90
41447;DHT22;27185;52.040;4.490;2023-04-03T09:38:19;9.20;99.90
41447;DHT22;27185;52.040;4.490;2023-04-03T09:41:12;9.30;99.90
41447;DHT22;27185;52.040;4.490;2023-04-03T09:43:59;9.40;99.90
41447;DHT22;27185;52.040;4.490;2023-04-03T09:46:45;9.50;99.90
41447;DHT22;27185;52.040;4.490;2023-04-03T09:49:31;9.60;99.90
41447;DHT22;27185;52.040;4.490;2023-04-03T09:52:25;9.70;99.90
41447;DHT22;27185;52.040;4.490;2023-04-03T09:55:17;9.80;99.60
41447;DHT22;27185;52.040;4.490;2023-04-03T09:58:05;9.90;99.10
41447;DHT22;27185;52.040;4.490;2023-04-03T10:01:39;10.00;99.90
41447;DHT22;27185;52.040;4.490;2023-04-03T10:04:37;10.10;98.60
41447;DHT22;27185;52.040;4.490;2023-04-03T10:07:34;10.20;99.60
41447;DHT22;27185;52.040;4.490;2023-04-03T10:10:22;10.30;99.40
41447;DHT22;27185;52.040;4.490;2023-04-03T10:13:13;10.40;99.60
41447;DHT22;27185;52.040;4.490;2023-04-03T10:16:12;10.40;99.50
41447;DHT22;27185;52.040;4.490;2023-04-03T10:19:31;10.50;98.10
41447;DHT22;27185;52.040;4.490;2023-04-03T10:22:30;10.50;96.30
41447;DHT22;27185;52.040;4.490;2023-04-03T10:25:55;10.60;93.50
41447;DHT22;27185;52.040;4.490;2023-04-03T10:35:44;10.90;94.80
41447;DHT22;27185;52.040;4.490;2023-04-03T10:42:03;11.80;95.20
41447;DHT22;27185;52.040;4.490;2023-04-03T10:48:11;13.00;93.90
41447;DHT22;27185;52.040;4.490;2023-04-03T10:54:38;14.00;86.80
41447;DHT22;27185;52.040;4.490;2023-04-03T10:57:25;14.30;85.30
41447;DHT22;27185;52.040;4.490;2023-04-03T11:00:21;14.50;87.00
41447;DHT22;27185;52.040;4.490;2023-04-03T11:03:20;14.80;86.80
41447;DHT22;27185;52.040;4.490;2023-04-03T11:06:11;15.10;87.50
41447;DHT22;27185;52.040;4.490;2023-04-03T11:09:01;15.40;83.00
41447;DHT22;27185;52.040;4.490;2023-04-03T11:11:51;15.60;82.20
41447;DHT22;27185;52.040;4.490;2023-04-03T11:14:39;15.80;84.60
41447;DHT22;27185;52.040;4.490;2023-04-03T11:17:35;16.00;83.30
41447;DHT22;27185;52.040;4.490;2023-04-03T11:20:31;16.30;79.70
41447;DHT22;27185;52.040;4.490;2023-04-03T11:23:30;16.60;78.00
41447;DHT22;27185;52.040;4.490;2023-04-03T11:26:19;16.80;81.10
41447;DHT22;27185;52.040;4.490;2023-04-03T11:29:10;16.90;78.30
41447;DHT22;27185;52.040;4.490;2023-04-03T11:35:06;17.20;70.60
41447;DHT22;27185;52.040;4.490;2023-04-03T11:37:53;17.40;75.60
41447;DHT22;27185;52.040;4.490;2023-04-03T11:40:40;17.60;75.00
41447;DHT22;27185;52.040;4.490;2023-04-03T11:43:30;17.60;71.90
41447;DHT22;27185;52.040;4.490;2023-04-03T11:46:17;17.60;69.50
41447;DHT22;27185;52.040;4.490;2023-04-03T11:49:04;17.60;70.80
41447;DHT22;27185;52.040;4.490;2023-04-03T11:51:50;17.60;72.20
41447;DHT22;27185;52.040;4.490;2023-04-03T11:54:46;17.60;69.70
41447;DHT22;27185;52.040;4.490;2023-04-03T12:12:35;18.50;66.20
41447;DHT22;27185;52.040;4.490;2023-04-03T12:15:25;18.50;64.90
41447;DHT22;27185;52.040;4.490;2023-04-03T12:27:27;18.30;61.70
41447;DHT22;27185;52.040;4.490;2023-04-03T12:30:26;18.30;62.40
41447;DHT22;27185;52.040;4.490;2023-04-03T12:33:27;18.30;60.80
41447;DHT22;27185;52.040;4.490;2023-04-03T12:36:28;18.20;60.10
41447;DHT22;27185;52.040;4.490;2023-04-03T12:43:02;18.20;55.30
41447;DHT22;27185;52.040;4.490;2023-04-03T12:54:39;18.60;63.00
41447;DHT22;27185;52.040;4.490;2023-04-03T12:57:26;18.70;61.10
41447;DHT22;27185;52.040;4.490;2023-04-03T13:00:20;18.70;60.00
41447;DHT22;27185;52.040;4.490;2023-04-03T13:03:15;18.80;61.20
41447;DHT22;27185;52.040;4.490;2023-04-03T13:06:05;18.90;62.60
41447;DHT22;27185;52.040;4.490;2023-04-03T13:08:54;18.90;61.00
41447;DHT22;27185;52.040;4.490;2023-04-03T13:11:43;19.00;60.10
41447;DHT22;27185;52.040;4.490;2023-04-03T13:14:30;19.10;61.20
41447;DHT22;27185;52.040;4.490;2023-04-03T13:17:16;19.30;64.50
41447;DHT22;27185;52.040;4.490;2023-04-03T13:20:26;19.30;62.90
41447;DHT22;27185;52.040;4.490;2023-04-03T13:23:13;19.20;56.30
41447;DHT22;27185;52.040;4.490;2023-04-03T13:26:04;19.20;61.80
41447;DHT22;27185;52.040;4.490;2023-04-03T13:28:50;19.20;60.20
41447;DHT22;27185;52.040;4.490;2023-04-03T13:31:38;19.20;62.90
41447;DHT22;27185;52.040;4.490;2023-04-03T13:34:26;19.20;61.10
41447;DHT22;27185;52.040;4.490;2023-04-03T13:37:24;19.20;62.50
41447;DHT22;27185;52.040;4.490;2023-04-03T13:40:13;19.20;60.60
41447;DHT22;27185;52.040;4.490;2023-04-03T13:43:06;19.10;61.80
41447;DHT22;27185;52.040;4.490;2023-04-03T13:45:58;19.20;63.10
41447;DHT22;27185;52.040;4.490;2023-04-03T13:48:47;19.00;59.60
41447;DHT22;27185;52.040;4.490;2023-04-03T13:51:38;19.00;60.70
41447;DHT22;27185;52.040;4.490;2023-04-03T13:54:37;19.00;59.20
41447;DHT22;27185;52.040;4.490;2023-04-03T13:57:23;18.90;60.20
41447;DHT22;27185;52.040;4.490;2023-04-03T14:06:16;19.00;61.60
41447;DHT22;27185;52.040;4.490;2023-04-03T14:09:03;19.00;60.60
41447;DHT22;27185;52.040;4.490;2023-04-03T14:11:52;19.00;61.10
41447;DHT22;27185;52.040;4.490;2023-04-03T14:14:38;19.00;60.50
41447;DHT22;27185;52.040;4.490;2023-04-03T14:17:25;19.00;63.20
41447;DHT22;27185;52.040;4.490;2023-04-03T14:20:17;19.00;58.80
41447;DHT22;27185;52.040;4.490;2023-04-03T14:23:03;19.10;58.50
41447;DHT22;27185;52.040;4.490;2023-04-03T14:25:48;19.10;58.10
41447;DHT22;27185;52.040;4.490;2023-04-03T14:28:35;19.10;59.20
41447;DHT22;27185;52.040;4.490;2023-04-03T14:31:21;19.20;61.00
41447;DHT22;27185;52.040;4.490;2023-04-03T14:34:07;19.40;59.80
41447;DHT22;27185;52.040;4.490;2023-04-03T14:36:52;19.60;57.40
41447;DHT22;27185;52.040;4.490;2023-04-03T14:39:39;19.80;58.10
41447;DHT22;27185;52.040;4.490;2023-04-03T14:42:29;19.90;58.60
41447;DHT22;27185;52.040;4.490;2023-04-03T14:45:16;19.80;58.30
41447;DHT22;27185;52.040;4.490;2023-04-03T14:48:03;19.70;58.50
41447;DHT22;27185;52.040;4.490;2023-04-03T14:50:51;19.70;61.20
41447;DHT22;27185;52.040;4.490;2023-04-03T14:53:37;19.70;60.40
41447;DHT22;27185;52.040;4.490;2023-04-03T14:56:26;19.80;61.20
41447;DHT22;27185;52.040;4.490;2023-04-03T14:59:13;19.90;61.70
41447;DHT22;27185;52.040;4.490;2023-04-03T15:01:59;20.00;61.50
41447;DHT22;27185;52.040;4.490;2023-04-03T15:04:45;20.10;62.60
41447;DHT22;27185;52.040;4.490;2023-04-03T15:07:34;20.10;59.60
41447;DHT22;27185;52.040;4.490;2023-04-03T15:10:23;20.10;59.60
41447;DHT22;27185;52.040;4.490;2023-04-03T15:13:11;20.20;58.00
41447;DHT22;27185;52.040;4.490;2023-04-03T15:15:57;20.20;59.30
41447;DHT22;27185;52.040;4.490;2023-04-03T15:18:43;20.20;58.10
41447;DHT22;27185;52.040;4.490;2023-04-03T15:21:29;20.20;59.30
41447;DHT22;27185;52.040;4.490;2023-04-03T15:24:15;20.20;59.70
41447;DHT22;27185;52.040;4.490;2023-04-03T15:27:01;20.20;59.70
41447;DHT22;27185;52.040;4.490;2023-04-03T15:29:46;20.20;58.80
41447;DHT22;27185;52.040;4.490;2023-04-03T15:32:32;20.10;59.30
41447;DHT22;27185;52.040;4.490;2023-04-03T15:35:19;20.10;58.50
41447;DHT22;27185;52.040;4.490;2023-04-03T15:38:05;20.10;58.70
41447;DHT22;27185;52.040;4.490;2023-04-03T15:40:50;20.10;56.40
41447;DHT22;27185;52.040;4.490;2023-04-03T15:43:36;20.00;57.70
41447;DHT22;27185;52.040;4.490;2023-04-03T15:46:22;19.90;57.90
41447;DHT22;27185;52.040;4.490;2023-04-03T15:49:07;19.80;58.40
41447;DHT22;27185;52.040;4.490;2023-04-03T15:51:53;19.80;58.00
41447;DHT22;27185;52.040;4.490;2023-04-03T15:54:39;19.70;58.20
41447;DHT22;27185;52.040;4.490;2023-04-03T15:57:24;19.70;57.10
41447;DHT22;27185;52.040;4.490;2023-04-03T16:00:12;19.50;54.40
41447;DHT22;27185;52.040;4.490;2023-04-03T16:03:10;19.40;55.50
41447;DHT22;27185;52.040;4.490;2023-04-03T16:05:56;19.30;55.40
41447;DHT22;27185;52.040;4.490;2023-04-03T16:08:42;19.20;57.00
41447;DHT22;27185;52.040;4.490;2023-04-03T16:11:28;19.10;54.80
41447;DHT22;27185;52.040;4.490;2023-04-03T16:14:14;19.00;55.10
41447;DHT22;27185;52.040;4.490;2023-04-03T16:17:00;18.80;56.40
41447;DHT22;27185;52.040;4.490;2023-04-03T16:19:45;18.80;57.80
41447;DHT22;27185;52.040;4.490;2023-04-03T16:22:31;18.80;58.70
41447;DHT22;27185;52.040;4.490;2023-04-03T16:25:18;18.80;57.90
41447;DHT22;27185;52.040;4.490;2023-04-03T16:28:03;18.80;57.70
41447;DHT22;27185;52.040;4.490;2023-04-03T16:30:49;18.80;59.40
41447;DHT22;27185;52.040;4.490;2023-04-03T16:33:35;18.80;59.40
41447;DHT22;27185;52.040;4.490;2023-04-03T16:36:22;18.80;59.60
41447;DHT22;27185;52.040;4.490;2023-04-03T16:39:08;18.80;57.80
41447;DHT22;27185;52.040;4.490;2023-04-03T16:41:55;18.70;58.00
41447;DHT22;27185;52.040;4.490;2023-04-03T16:44:41;18.60;58.10
41447;DHT22;27185;52.040;4.490;2023-04-03T16:47:26;18.50;57.30
41447;DHT22;27185;52.040;4.490;2023-04-03T16:50:12;18.40;58.90
41447;DHT22;27185;52.040;4.490;2023-04-03T16:52:59;18.20;57.10
41447;DHT22;27185;52.040;4.490;2023-04-03T16:55:45;18.10;58.60
41447;DHT22;27185;52.040;4.490;2023-04-03T16:58:30;18.00;57.80
41447;DHT22;27185;52.040;4.490;2023-04-03T17:01:19;18.00;58.80
41447;DHT22;27185;52.040;4.490;2023-04-03T17:04:06;17.80;56.60
41447;DHT22;27185;52.040;4.490;2023-04-03T17:06:52;17.60;58.00
41447;DHT22;27185;52.040;4.490;2023-04-03T17:09:38;17.20;57.80
41447;DHT22;27185;52.040;4.490;2023-04-03T17:12:24;16.80;57.10
41447;DHT22;27185;52.040;4.490;2023-04-03T17:15:10;16.30;57.80
41447;DHT22;27185;52.040;4.490;2023-04-03T17:17:56;15.80;58.40
41447;DHT22;27185;52.040;4.490;2023-04-03T17:20:41;15.30;58.50
41447;DHT22;27185;52.040;4.490;2023-04-03T17:23:28;14.90;58.90
41447;DHT22;27185;52.040;4.490;2023-04-03T17:26:14;14.40;59.20
41447;DHT22;27185;52.040;4.490;2023-04-03T17:29:00;14.10;60.30
41447;DHT22;27185;52.040;4.490;2023-04-03T17:31:45;13.80;61.60
41447;DHT22;27185;52.040;4.490;2023-04-03T17:34:31;13.50;61.10
41447;DHT22;27185;52.040;4.490;2023-04-03T17:37:18;13.20;62.20
41447;DHT22;27185;52.040;4.490;2023-04-03T17:40:04;13.00;63.10
41447;DHT22;27185;52.040;4.490;2023-04-03T17:42:49;12.80;63.60
41447;DHT22;27185;52.040;4.490;2023-04-03T17:45:35;12.70;64.30
41447;DHT22;27185;52.040;4.490;2023-04-03T17:48:21;12.50;64.20
41447;DHT22;27185;52.040;4.490;2023-04-03T17:51:10;12.30;64.80
41447;DHT22;27185;52.040;4.490;2023-04-03T17:53:56;12.20;65.50
41447;DHT22;27185;52.040;4.490;2023-04-03T17:56:41;12.10;66.20
41447;DHT22;27185;52.040;4.490;2023-04-03T17:59:32;11.90;66.20
41447;DHT22;27185;52.040;4.490;2023-04-03T18:02:17;11.80;66.90
41447;DHT22;27185;52.040;4.490;2023-04-03T18:05:03;11.70;67.90
41447;DHT22;27185;52.040;4.490;2023-04-03T18:07:49;11.60;68.30
41447;DHT22;27185;52.040;4.490;2023-04-03T18:10:35;11.50;69.80
41447;DHT22;27185;52.040;4.490;2023-04-03T18:13:21;11.40;69.40
41447;DHT22;27185;52.040;4.490;2023-04-03T18:16:09;11.30;70.10
41447;DHT22;27185;52.040;4.490;2023-04-03T18:18:55;11.20;70.30
41447;DHT22;27185;52.040;4.490;2023-04-03T18:21:40;11.10;71.70
41447;DHT22;27185;52.040;4.490;2023-04-03T18:24:26;11.00;71.20
41447;DHT22;27185;52.040;4.490;2023-04-03T18:27:14;10.90;71.70
41447;DHT22;27185;52.040;4.490;2023-04-03T18:30:05;10.80;72.20
41447;DHT22;27185;52.040;4.490;2023-04-03T18:32:51;10.80;73.00
41447;DHT22;27185;52.040;4.490;2023-04-03T18:35:37;10.60;73.60
41447;DHT22;27185;52.040;4.490;2023-04-03T18:38:22;10.50;74.20
41447;DHT22;27185;52.040;4.490;2023-04-03T18:41:08;10.40;74.90
41447;DHT22;27185;52.040;4.490;2023-04-03T18:43:55;10.30;75.70
41447;DHT22;27185;52.040;4.490;2023-04-03T18:46:42;10.20;76.20
41447;DHT22;27185;52.040;4.490;2023-04-03T18:49:28;10.10;77.20
41447;DHT22;27185;52.040;4.490;2023-04-03T18:52:15;10.00;78.10
41447;DHT22;27185;52.040;4.490;2023-04-03T18:55:01;9.90;78.80
41447;DHT22;27185;52.040;4.490;2023-04-03T18:57:47;9.80;79.40
41447;DHT22;27185;52.040;4.490;2023-04-03T19:00:33;9.70;80.30
41447;DHT22;27185;52.040;4.490;2023-04-03T19:03:19;9.70;81.90
41447;DHT22;27185;52.040;4.490;2023-04-03T19:06:05;9.60;82.10
41447;DHT22;27185;52.040;4.490;2023-04-03T19:08:51;9.50;82.70
41447;DHT22;27185;52.040;4.490;2023-04-03T19:11:37;9.50;83.80
41447;DHT22;27185;52.040;4.490;2023-04-03T19:14:23;9.40;84.50